sensor_id;sensor_type;location;lat;lon;timestamp;P1;durP1;ratioP1;P2;durP2;ratioP2
9447;SDS011;4762;48.128;11.376;2022-11-14T00:00:52;3.67;;;2.73;;
9447;SDS011;4762;48.128;11.376;2022-11-14T00:02:58;3.93;;;3.33;;
9447;SDS011;4762;48.128;11.376;2022-11-14T00:04:57;2.63;;;2.37;;
9447;SDS011;4762;48.128;11.376;2022-11-14T00:06:59;3.80;;;2.47;;
9447;SDS011;4762;48.128;11.376;2022-11-14T00:09:03;2.60;;;2.00;;
9447;SDS011;4762;48.128;11.376;2022-11-14T00:11:05;2.17;;;1.97;;
9447;SDS011;4762;48.128;11.376;2022-11-14T00:13:07;3.30;;;2.53;;
9447;SDS011;4762;48.128;11.376;2022-11-14T00:15:10;2.53;;;2.20;;
9447;SDS011;4762;48.128;11.376;2022-11-14T00:17:12;3.50;;;2.60;;
9447;SDS011;4762;48.128;11.376;2022-11-14T00:19:15;4.90;;;2.60;;
9447;SDS011;4762;48.128;11.376;2022-11-14T00:21:18;3.90;;;2.20;;
9447;SDS011;4762;48.128;11.376;2022-11-14T00:23:20;2.17;;;1.77;;
9447;SDS011;4762;48.128;11.376;2022-11-14T00:25:22;2.07;;;1.43;;
9447;SDS011;4762;48.128;11.376;2022-11-14T00:27:25;4.70;;;2.50;;
9447;SDS011;4762;48.128;11.376;2022-11-14T00:29:27;2.43;;;1.70;;
9447;SDS011;4762;48.128;11.376;2022-11-14T00:31:33;1.80;;;1.43;;
9447;SDS011;4762;48.128;11.376;2022-11-14T00:33:35;3.57;;;2.40;;
9447;SDS011;4762;48.128;11.376;2022-11-14T00:35:38;3.07;;;1.73;;
9447;SDS011;4762;48.128;11.376;2022-11-14T00:37:41;2.10;;;1.80;;
9447;SDS011;4762;48.128;11.376;2022-11-14T00:39:44;2.23;;;1.40;;
9447;SDS011;4762;48.128;11.376;2022-11-14T00:41:46;3.40;;;2.00;;
9447;SDS011;4762;48.128;11.376;2022-11-14T00:43:48;2.90;;;2.10;;
9447;SDS011;4762;48.128;11.376;2022-11-14T00:45:51;2.00;;;1.70;;
9447;SDS011;4762;48.128;11.376;2022-11-14T00:47:53;2.13;;;1.47;;
9447;SDS011;4762;48.128;11.376;2022-11-14T00:49:55;2.30;;;1.50;;
9447;SDS011;4762;48.128;11.376;2022-11-14T00:51:58;3.30;;;2.10;;
9447;SDS011;4762;48.128;11.376;2022-11-14T00:54:01;1.87;;;1.47;;
9447;SDS011;4762;48.128;11.376;2022-11-14T00:56:03;4.33;;;2.20;;
9447;SDS011;4762;48.128;11.376;2022-11-14T00:58:06;2.30;;;1.50;;
9447;SDS011;4762;48.128;11.376;2022-11-14T01:00:12;2.13;;;1.70;;
9447;SDS011;4762;48.128;11.376;2022-11-14T01:02:15;4.00;;;2.77;;
9447;SDS011;4762;48.128;11.376;2022-11-14T01:04:17;1.93;;;1.60;;
9447;SDS011;4762;48.128;11.376;2022-11-14T01:08:38;5.27;;;2.53;;
9447;SDS011;4762;48.128;11.376;2022-11-14T01:10:41;3.30;;;2.13;;
9447;SDS011;4762;48.128;11.376;2022-11-14T01:12:43;2.03;;;1.63;;
9447;SDS011;4762;48.128;11.376;2022-11-14T01:14:47;2.47;;;2.27;;
9447;SDS011;4762;48.128;11.376;2022-11-14T01:16:49;3.13;;;1.70;;
9447;SDS011;4762;48.128;11.376;2022-11-14T01:18:52;1.83;;;1.60;;
9447;SDS011;4762;48.128;11.376;2022-11-14T01:20:54;1.77;;;1.43;;
9447;SDS011;4762;48.128;11.376;2022-11-14T01:22:56;2.30;;;2.00;;
9447;SDS011;4762;48.128;11.376;2022-11-14T01:24:59;3.70;;;1.80;;
9447;SDS011;4762;48.128;11.376;2022-11-14T01:27:01;2.13;;;1.20;;
9447;SDS011;4762;48.128;11.376;2022-11-14T01:29:03;1.97;;;1.40;;
9447;SDS011;4762;48.128;11.376;2022-11-14T01:31:14;1.93;;;1.67;;
9447;SDS011;4762;48.128;11.376;2022-11-14T01:33:20;2.90;;;1.80;;
9447;SDS011;4762;48.128;11.376;2022-11-14T01:35:22;4.53;;;1.90;;
9447;SDS011;4762;48.128;11.376;2022-11-14T01:37:24;2.20;;;1.73;;
9447;SDS011;4762;48.128;11.376;2022-11-14T01:39:27;2.70;;;2.00;;
9447;SDS011;4762;48.128;11.376;2022-11-14T01:41:30;3.10;;;1.97;;
9447;SDS011;4762;48.128;11.376;2022-11-14T01:43:33;2.90;;;1.70;;
9447;SDS011;4762;48.128;11.376;2022-11-14T01:45:45;2.80;;;2.30;;
9447;SDS011;4762;48.128;11.376;2022-11-14T01:47:48;2.40;;;2.20;;
9447;SDS011;4762;48.128;11.376;2022-11-14T01:49:53;2.63;;;1.97;;
9447;SDS011;4762;48.128;11.376;2022-11-14T01:52:01;1.80;;;1.27;;
9447;SDS011;4762;48.128;11.376;2022-11-14T01:54:04;2.63;;;1.90;;
9447;SDS011;4762;48.128;11.376;2022-11-14T01:56:07;2.03;;;1.80;;
9447;SDS011;4762;48.128;11.376;2022-11-14T01:58:09;5.00;;;1.83;;
9447;SDS011;4762;48.128;11.376;2022-11-14T02:00:12;1.90;;;1.50;;
9447;SDS011;4762;48.128;11.376;2022-11-14T02:02:18;4.00;;;2.53;;
9447;SDS011;4762;48.128;11.376;2022-11-14T02:04:20;1.70;;;1.40;;
9447;SDS011;4762;48.128;11.376;2022-11-14T02:06:24;2.07;;;1.43;;
9447;SDS011;4762;48.128;11.376;2022-11-14T02:08:26;1.70;;;1.30;;
9447;SDS011;4762;48.128;11.376;2022-11-14T02:10:29;2.13;;;1.30;;
9447;SDS011;4762;48.128;11.376;2022-11-14T02:12:31;2.63;;;1.70;;
9447;SDS011;4762;48.128;11.376;2022-11-14T02:14:34;1.50;;;1.03;;
9447;SDS011;4762;48.128;11.376;2022-11-14T02:16:38;1.70;;;1.20;;
9447;SDS011;4762;48.128;11.376;2022-11-14T02:18:39;2.13;;;1.20;;
9447;SDS011;4762;48.128;11.376;2022-11-14T02:20:43;3.00;;;1.87;;
9447;SDS011;4762;48.128;11.376;2022-11-14T02:22:45;2.23;;;1.57;;
9447;SDS011;4762;48.128;11.376;2022-11-14T02:24:49;2.27;;;1.77;;
9447;SDS011;4762;48.128;11.376;2022-11-14T02:26:52;2.17;;;1.53;;
9447;SDS011;4762;48.128;11.376;2022-11-14T02:28:55;5.63;;;2.03;;
9447;SDS011;4762;48.128;11.376;2022-11-14T02:30:58;1.67;;;1.10;;
9447;SDS011;4762;48.128;11.376;2022-11-14T02:33:00;1.90;;;0.90;;
9447;SDS011;4762;48.128;11.376;2022-11-14T02:35:03;2.90;;;2.20;;
9447;SDS011;4762;48.128;11.376;2022-11-14T02:37:05;1.90;;;1.30;;
9447;SDS011;4762;48.128;11.376;2022-11-14T02:39:08;1.70;;;1.33;;
9447;SDS011;4762;48.128;11.376;2022-11-14T02:41:10;1.87;;;1.17;;
9447;SDS011;4762;48.128;11.376;2022-11-14T02:43:12;6.13;;;1.63;;
9447;SDS011;4762;48.128;11.376;2022-11-14T02:45:15;2.87;;;1.83;;
9447;SDS011;4762;48.128;11.376;2022-11-14T02:47:18;5.20;;;1.77;;
9447;SDS011;4762;48.128;11.376;2022-11-14T02:49:20;4.13;;;2.00;;
9447;SDS011;4762;48.128;11.376;2022-11-14T02:51:23;1.93;;;1.60;;
9447;SDS011;4762;48.128;11.376;2022-11-14T02:53:25;2.23;;;1.57;;
9447;SDS011;4762;48.128;11.376;2022-11-14T02:55:27;2.80;;;1.43;;
9447;SDS011;4762;48.128;11.376;2022-11-14T02:57:30;1.70;;;1.20;;
9447;SDS011;4762;48.128;11.376;2022-11-14T02:59:32;1.53;;;0.93;;
9447;SDS011;4762;48.128;11.376;2022-11-14T03:01:34;5.30;;;1.63;;
9447;SDS011;4762;48.128;11.376;2022-11-14T03:03:36;2.10;;;1.50;;
9447;SDS011;4762;48.128;11.376;2022-11-14T03:05:39;1.70;;;1.10;;
9447;SDS011;4762;48.128;11.376;2022-11-14T03:07:41;2.00;;;1.30;;
9447;SDS011;4762;48.128;11.376;2022-11-14T03:09:43;1.40;;;0.90;;
9447;SDS011;4762;48.128;11.376;2022-11-14T03:11:46;2.00;;;1.03;;
9447;SDS011;4762;48.128;11.376;2022-11-14T03:13:50;1.50;;;1.10;;
9447;SDS011;4762;48.128;11.376;2022-11-14T03:15:52;1.70;;;1.43;;
9447;SDS011;4762;48.128;11.376;2022-11-14T03:17:54;1.37;;;0.90;;
9447;SDS011;4762;48.128;11.376;2022-11-14T03:19:57;1.50;;;1.00;;
9447;SDS011;4762;48.128;11.376;2022-11-14T03:21:59;1.67;;;0.90;;
9447;SDS011;4762;48.128;11.376;2022-11-14T03:24:02;2.57;;;1.47;;
9447;SDS011;4762;48.128;11.376;2022-11-14T03:26:06;1.80;;;1.30;;
9447;SDS011;4762;48.128;11.376;2022-11-14T03:28:10;1.80;;;1.20;;
9447;SDS011;4762;48.128;11.376;2022-11-14T03:30:12;2.50;;;1.50;;
9447;SDS011;4762;48.128;11.376;2022-11-14T03:32:15;2.00;;;1.20;;
9447;SDS011;4762;48.128;11.376;2022-11-14T03:34:17;1.40;;;0.90;;
9447;SDS011;4762;48.128;11.376;2022-11-14T03:36:19;1.50;;;0.90;;
9447;SDS011;4762;48.128;11.376;2022-11-14T03:38:22;2.10;;;1.37;;
9447;SDS011;4762;48.128;11.376;2022-11-14T03:40:24;2.40;;;1.30;;
9447;SDS011;4762;48.128;11.376;2022-11-14T03:42:27;1.70;;;1.00;;
9447;SDS011;4762;48.128;11.376;2022-11-14T03:44:30;1.77;;;1.03;;
9447;SDS011;4762;48.128;11.376;2022-11-14T03:46:33;1.33;;;1.03;;
9447;SDS011;4762;48.128;11.376;2022-11-14T03:48:35;1.40;;;1.03;;
9447;SDS011;4762;48.128;11.376;2022-11-14T03:50:38;2.33;;;1.17;;
9447;SDS011;4762;48.128;11.376;2022-11-14T03:52:40;1.33;;;0.93;;
9447;SDS011;4762;48.128;11.376;2022-11-14T03:54:42;3.70;;;1.90;;
9447;SDS011;4762;48.128;11.376;2022-11-14T03:56:45;1.63;;;1.10;;
9447;SDS011;4762;48.128;11.376;2022-11-14T03:58:48;1.80;;;1.47;;
9447;SDS011;4762;48.128;11.376;2022-11-14T04:00:50;1.87;;;1.20;;
9447;SDS011;4762;48.128;11.376;2022-11-14T04:02:53;2.57;;;1.10;;
9447;SDS011;4762;48.128;11.376;2022-11-14T04:04:54;1.47;;;1.20;;
9447;SDS011;4762;48.128;11.376;2022-11-14T04:06:57;1.83;;;1.17;;
9447;SDS011;4762;48.128;11.376;2022-11-14T04:08:59;1.73;;;1.23;;
9447;SDS011;4762;48.128;11.376;2022-11-14T04:11:01;2.90;;;1.60;;
9447;SDS011;4762;48.128;11.376;2022-11-14T04:13:04;2.33;;;1.53;;
9447;SDS011;4762;48.128;11.376;2022-11-14T04:15:06;2.43;;;1.50;;
9447;SDS011;4762;48.128;11.376;2022-11-14T04:17:08;2.00;;;1.40;;
9447;SDS011;4762;48.128;11.376;2022-11-14T04:19:11;1.50;;;1.20;;
9447;SDS011;4762;48.128;11.376;2022-11-14T04:21:13;3.17;;;1.90;;
9447;SDS011;4762;48.128;11.376;2022-11-14T04:23:17;2.77;;;1.77;;
9447;SDS011;4762;48.128;11.376;2022-11-14T04:25:19;1.93;;;1.60;;
9447;SDS011;4762;48.128;11.376;2022-11-14T04:27:21;2.37;;;1.30;;
9447;SDS011;4762;48.128;11.376;2022-11-14T04:29:23;3.43;;;1.90;;
9447;SDS011;4762;48.128;11.376;2022-11-14T04:31:26;2.50;;;1.20;;
9447;SDS011;4762;48.128;11.376;2022-11-14T04:33:28;1.50;;;1.20;;
9447;SDS011;4762;48.128;11.376;2022-11-14T04:35:30;2.07;;;1.37;;
9447;SDS011;4762;48.128;11.376;2022-11-14T04:37:33;1.60;;;1.23;;
9447;SDS011;4762;48.128;11.376;2022-11-14T04:39:35;1.70;;;1.10;;
9447;SDS011;4762;48.128;11.376;2022-11-14T04:41:37;2.23;;;1.47;;
9447;SDS011;4762;48.128;11.376;2022-11-14T04:43:40;1.87;;;1.43;;
9447;SDS011;4762;48.128;11.376;2022-11-14T04:45:42;1.93;;;1.07;;
9447;SDS011;4762;48.128;11.376;2022-11-14T04:47:44;2.03;;;1.33;;
9447;SDS011;4762;48.128;11.376;2022-11-14T04:49:46;1.40;;;1.00;;
9447;SDS011;4762;48.128;11.376;2022-11-14T04:51:50;1.40;;;1.10;;
9447;SDS011;4762;48.128;11.376;2022-11-14T04:53:52;1.97;;;1.40;;
9447;SDS011;4762;48.128;11.376;2022-11-14T04:58:14;1.50;;;1.00;;
9447;SDS011;4762;48.128;11.376;2022-11-14T05:00:17;1.93;;;1.27;;
9447;SDS011;4762;48.128;11.376;2022-11-14T05:02:20;1.70;;;0.87;;
9447;SDS011;4762;48.128;11.376;2022-11-14T05:04:22;2.13;;;1.23;;
9447;SDS011;4762;48.128;11.376;2022-11-14T05:06:25;1.63;;;1.13;;
9447;SDS011;4762;48.128;11.376;2022-11-14T05:08:27;1.50;;;1.03;;
9447;SDS011;4762;48.128;11.376;2022-11-14T05:10:29;1.53;;;1.10;;
9447;SDS011;4762;48.128;11.376;2022-11-14T05:12:31;1.50;;;1.17;;
9447;SDS011;4762;48.128;11.376;2022-11-14T05:14:34;1.80;;;1.47;;
9447;SDS011;4762;48.128;11.376;2022-11-14T05:16:37;2.90;;;1.87;;
9447;SDS011;4762;48.128;11.376;2022-11-14T05:18:39;1.40;;;1.00;;
9447;SDS011;4762;48.128;11.376;2022-11-14T05:20:42;2.80;;;1.50;;
9447;SDS011;4762;48.128;11.376;2022-11-14T05:22:44;2.00;;;1.60;;
9447;SDS011;4762;48.128;11.376;2022-11-14T05:24:47;1.40;;;1.00;;
9447;SDS011;4762;48.128;11.376;2022-11-14T05:26:50;1.63;;;1.00;;
9447;SDS011;4762;48.128;11.376;2022-11-14T05:28:52;1.70;;;1.07;;
9447;SDS011;4762;48.128;11.376;2022-11-14T05:31:05;2.07;;;1.00;;
9447;SDS011;4762;48.128;11.376;2022-11-14T05:37:47;1.67;;;1.20;;
9447;SDS011;4762;48.128;11.376;2022-11-14T05:39:50;1.53;;;0.97;;
9447;SDS011;4762;48.128;11.376;2022-11-14T05:41:54;1.93;;;1.03;;
9447;SDS011;4762;48.128;11.376;2022-11-14T05:43:56;1.70;;;0.97;;
9447;SDS011;4762;48.128;11.376;2022-11-14T05:45:59;1.30;;;0.70;;
9447;SDS011;4762;48.128;11.376;2022-11-14T05:48:01;1.70;;;1.27;;
9447;SDS011;4762;48.128;11.376;2022-11-14T05:50:03;2.67;;;1.53;;
9447;SDS011;4762;48.128;11.376;2022-11-14T05:52:06;1.40;;;1.10;;
9447;SDS011;4762;48.128;11.376;2022-11-14T05:54:09;4.23;;;1.93;;
9447;SDS011;4762;48.128;11.376;2022-11-14T05:56:12;1.27;;;0.97;;
9447;SDS011;4762;48.128;11.376;2022-11-14T05:58:15;1.77;;;1.27;;
9447;SDS011;4762;48.128;11.376;2022-11-14T06:00:18;2.20;;;1.23;;
9447;SDS011;4762;48.128;11.376;2022-11-14T06:02:20;1.50;;;1.00;;
9447;SDS011;4762;48.128;11.376;2022-11-14T06:04:23;1.30;;;0.90;;
9447;SDS011;4762;48.128;11.376;2022-11-14T06:06:25;1.30;;;0.83;;
9447;SDS011;4762;48.128;11.376;2022-11-14T06:08:28;1.50;;;1.13;;
9447;SDS011;4762;48.128;11.376;2022-11-14T06:10:29;1.60;;;1.17;;
9447;SDS011;4762;48.128;11.376;2022-11-14T06:12:32;1.60;;;1.10;;
9447;SDS011;4762;48.128;11.376;2022-11-14T06:14:34;1.63;;;1.07;;
9447;SDS011;4762;48.128;11.376;2022-11-14T06:16:36;1.40;;;0.77;;
9447;SDS011;4762;48.128;11.376;2022-11-14T06:18:39;1.40;;;1.00;;
9447;SDS011;4762;48.128;11.376;2022-11-14T06:20:41;1.30;;;0.93;;
9447;SDS011;4762;48.128;11.376;2022-11-14T06:22:43;1.30;;;0.90;;
9447;SDS011;4762;48.128;11.376;2022-11-14T06:24:46;1.30;;;0.80;;
9447;SDS011;4762;48.128;11.376;2022-11-14T06:26:48;1.80;;;1.17;;
9447;SDS011;4762;48.128;11.376;2022-11-14T06:28:51;1.37;;;0.87;;
9447;SDS011;4762;48.128;11.376;2022-11-14T06:30:58;1.77;;;1.30;;
9447;SDS011;4762;48.128;11.376;2022-11-14T06:33:01;1.40;;;1.03;;
9447;SDS011;4762;48.128;11.376;2022-11-14T06:35:05;2.00;;;1.40;;
9447;SDS011;4762;48.128;11.376;2022-11-14T06:37:07;3.50;;;1.57;;
9447;SDS011;4762;48.128;11.376;2022-11-14T06:39:10;1.30;;;0.80;;
9447;SDS011;4762;48.128;11.376;2022-11-14T06:41:13;1.80;;;1.03;;
9447;SDS011;4762;48.128;11.376;2022-11-14T06:43:15;1.37;;;0.90;;
9447;SDS011;4762;48.128;11.376;2022-11-14T06:45:17;1.40;;;0.80;;
9447;SDS011;4762;48.128;11.376;2022-11-14T06:47:20;1.33;;;0.80;;
9447;SDS011;4762;48.128;11.376;2022-11-14T06:49:22;1.40;;;0.80;;
9447;SDS011;4762;48.128;11.376;2022-11-14T06:51:25;2.33;;;1.37;;
9447;SDS011;4762;48.128;11.376;2022-11-14T06:53:28;1.70;;;1.20;;
9447;SDS011;4762;48.128;11.376;2022-11-14T06:55:31;2.50;;;1.60;;
9447;SDS011;4762;48.128;11.376;2022-11-14T06:57:33;2.13;;;1.10;;
9447;SDS011;4762;48.128;11.376;2022-11-14T06:59:36;1.27;;;0.80;;
9447;SDS011;4762;48.128;11.376;2022-11-14T07:01:39;1.43;;;0.90;;
9447;SDS011;4762;48.128;11.376;2022-11-14T07:03:45;4.10;;;1.17;;
9447;SDS011;4762;48.128;11.376;2022-11-14T07:05:48;1.43;;;1.20;;
9447;SDS011;4762;48.128;11.376;2022-11-14T07:07:51;3.20;;;1.00;;
9447;SDS011;4762;48.128;11.376;2022-11-14T07:09:54;2.40;;;1.37;;
9447;SDS011;4762;48.128;11.376;2022-11-14T07:11:57;1.33;;;0.80;;
9447;SDS011;4762;48.128;11.376;2022-11-14T07:14:00;2.10;;;1.20;;
9447;SDS011;4762;48.128;11.376;2022-11-14T07:16:02;1.20;;;0.70;;
9447;SDS011;4762;48.128;11.376;2022-11-14T07:18:07;1.70;;;0.90;;
9447;SDS011;4762;48.128;11.376;2022-11-14T07:37:28;1.77;;;1.17;;
9447;SDS011;4762;48.128;11.376;2022-11-14T07:39:31;2.13;;;1.33;;
9447;SDS011;4762;48.128;11.376;2022-11-14T07:41:34;1.70;;;1.10;;
9447;SDS011;4762;48.128;11.376;2022-11-14T07:43:38;2.00;;;1.60;;
9447;SDS011;4762;48.128;11.376;2022-11-14T07:45:40;2.17;;;1.10;;
9447;SDS011;4762;48.128;11.376;2022-11-14T07:47:42;2.07;;;1.20;;
9447;SDS011;4762;48.128;11.376;2022-11-14T07:49:45;2.67;;;1.50;;
9447;SDS011;4762;48.128;11.376;2022-11-14T07:51:47;1.70;;;0.93;;
9447;SDS011;4762;48.128;11.376;2022-11-14T07:53:51;1.40;;;0.93;;
9447;SDS011;4762;48.128;11.376;2022-11-14T07:55:53;1.40;;;1.00;;
9447;SDS011;4762;48.128;11.376;2022-11-14T07:57:58;2.27;;;1.47;;
9447;SDS011;4762;48.128;11.376;2022-11-14T07:59:58;1.93;;;1.43;;
9447;SDS011;4762;48.128;11.376;2022-11-14T08:02:01;3.53;;;1.53;;
9447;SDS011;4762;48.128;11.376;2022-11-14T08:04:03;1.50;;;1.30;;
9447;SDS011;4762;48.128;11.376;2022-11-14T08:06:07;3.20;;;1.30;;
9447;SDS011;4762;48.128;11.376;2022-11-14T08:08:08;1.97;;;1.50;;
9447;SDS011;4762;48.128;11.376;2022-11-14T08:10:11;1.63;;;1.10;;
9447;SDS011;4762;48.128;11.376;2022-11-14T08:12:13;1.60;;;1.20;;
9447;SDS011;4762;48.128;11.376;2022-11-14T08:14:15;1.90;;;1.27;;
9447;SDS011;4762;48.128;11.376;2022-11-14T08:16:18;3.23;;;1.90;;
9447;SDS011;4762;48.128;11.376;2022-11-14T08:18:21;2.90;;;1.97;;
9447;SDS011;4762;48.128;11.376;2022-11-14T08:20:23;1.90;;;1.30;;
9447;SDS011;4762;48.128;11.376;2022-11-14T08:22:26;1.87;;;1.20;;
9447;SDS011;4762;48.128;11.376;2022-11-14T08:24:28;1.50;;;1.20;;
9447;SDS011;4762;48.128;11.376;2022-11-14T08:26:30;1.63;;;1.47;;
9447;SDS011;4762;48.128;11.376;2022-11-14T08:28:33;1.77;;;1.50;;
9447;SDS011;4762;48.128;11.376;2022-11-14T08:30:35;1.90;;;1.33;;
9447;SDS011;4762;48.128;11.376;2022-11-14T08:32:38;2.03;;;1.20;;
9447;SDS011;4762;48.128;11.376;2022-11-14T08:34:41;1.60;;;1.10;;
9447;SDS011;4762;48.128;11.376;2022-11-14T08:36:43;1.77;;;1.10;;
9447;SDS011;4762;48.128;11.376;2022-11-14T08:38:47;1.30;;;0.80;;
9447;SDS011;4762;48.128;11.376;2022-11-14T08:40:50;1.30;;;0.90;;
9447;SDS011;4762;48.128;11.376;2022-11-14T08:42:58;1.37;;;1.03;;
9447;SDS011;4762;48.128;11.376;2022-11-14T08:45:02;1.30;;;0.73;;
9447;SDS011;4762;48.128;11.376;2022-11-14T08:47:05;2.20;;;1.20;;
9447;SDS011;4762;48.128;11.376;2022-11-14T08:49:07;1.30;;;0.87;;
9447;SDS011;4762;48.128;11.376;2022-11-14T08:51:09;1.30;;;1.03;;
9447;SDS011;4762;48.128;11.376;2022-11-14T08:53:13;1.70;;;1.20;;
9447;SDS011;4762;48.128;11.376;2022-11-14T08:55:15;1.87;;;1.33;;
9447;SDS011;4762;48.128;11.376;2022-11-14T08:57:17;1.90;;;1.50;;
9447;SDS011;4762;48.128;11.376;2022-11-14T08:59:20;1.67;;;1.30;;
9447;SDS011;4762;48.128;11.376;2022-11-14T09:01:24;1.43;;;1.20;;
9447;SDS011;4762;48.128;11.376;2022-11-14T09:03:27;2.30;;;1.50;;
9447;SDS011;4762;48.128;11.376;2022-11-14T09:05:29;1.63;;;1.13;;
9447;SDS011;4762;48.128;11.376;2022-11-14T09:07:32;1.50;;;1.20;;
9447;SDS011;4762;48.128;11.376;2022-11-14T09:09:34;2.13;;;1.90;;
9447;SDS011;4762;48.128;11.376;2022-11-14T09:11:40;1.70;;;1.30;;
9447;SDS011;4762;48.128;11.376;2022-11-14T09:13:43;1.80;;;1.40;;
9447;SDS011;4762;48.128;11.376;2022-11-14T09:15:46;1.60;;;1.03;;
9447;SDS011;4762;48.128;11.376;2022-11-14T09:20:09;2.30;;;1.40;;
9447;SDS011;4762;48.128;11.376;2022-11-14T09:22:13;3.43;;;1.83;;
9447;SDS011;4762;48.128;11.376;2022-11-14T09:24:17;3.20;;;2.20;;
9447;SDS011;4762;48.128;11.376;2022-11-14T09:26:20;16.63;;;1.90;;
9447;SDS011;4762;48.128;11.376;2022-11-14T09:28:26;2.23;;;1.63;;
9447;SDS011;4762;48.128;11.376;2022-11-14T09:30:29;3.13;;;2.10;;
9447;SDS011;4762;48.128;11.376;2022-11-14T09:32:31;4.20;;;2.30;;
9447;SDS011;4762;48.128;11.376;2022-11-14T09:34:34;2.10;;;1.70;;
9447;SDS011;4762;48.128;11.376;2022-11-14T09:36:36;1.83;;;1.57;;
9447;SDS011;4762;48.128;11.376;2022-11-14T09:38:38;1.93;;;1.70;;
9447;SDS011;4762;48.128;11.376;2022-11-14T09:43:29;2.37;;;1.73;;
9447;SDS011;4762;48.128;11.376;2022-11-14T09:45:28;3.77;;;2.67;;
9447;SDS011;4762;48.128;11.376;2022-11-14T09:47:37;4.03;;;2.23;;
9447;SDS011;4762;48.128;11.376;2022-11-14T09:51:49;3.50;;;2.13;;
9447;SDS011;4762;48.128;11.376;2022-11-14T09:53:59;3.03;;;1.97;;
9447;SDS011;4762;48.128;11.376;2022-11-14T09:56:11;10.03;;;2.63;;
9447;SDS011;4762;48.128;11.376;2022-11-14T09:58:15;3.00;;;2.60;;
9447;SDS011;4762;48.128;11.376;2022-11-14T10:17:54;4.10;;;2.10;;
9447;SDS011;4762;48.128;11.376;2022-11-14T10:19:59;2.47;;;1.77;;
9447;SDS011;4762;48.128;11.376;2022-11-14T10:22:05;4.70;;;2.20;;
9447;SDS011;4762;48.128;11.376;2022-11-14T10:24:45;9.00;;;3.37;;
9447;SDS011;4762;48.128;11.376;2022-11-14T10:26:53;4.23;;;2.27;;
9447;SDS011;4762;48.128;11.376;2022-11-14T10:31:19;6.50;;;2.20;;
9447;SDS011;4762;48.128;11.376;2022-11-14T10:33:35;3.40;;;2.57;;
9447;SDS011;4762;48.128;11.376;2022-11-14T10:36:16;3.63;;;2.37;;
9447;SDS011;4762;48.128;11.376;2022-11-14T10:38:03;4.30;;;2.57;;
9447;SDS011;4762;48.128;11.376;2022-11-14T10:40:16;3.07;;;2.67;;
9447;SDS011;4762;48.128;11.376;2022-11-14T10:47:01;4.73;;;2.40;;
9447;SDS011;4762;48.128;11.376;2022-11-14T10:49:10;3.23;;;2.70;;
9447;SDS011;4762;48.128;11.376;2022-11-14T10:51:09;3.73;;;2.70;;
9447;SDS011;4762;48.128;11.376;2022-11-14T10:53:14;3.03;;;2.40;;
9447;SDS011;4762;48.128;11.376;2022-11-14T10:55:30;4.37;;;2.40;;
9447;SDS011;4762;48.128;11.376;2022-11-14T10:57:33;3.63;;;2.67;;
9447;SDS011;4762;48.128;11.376;2022-11-14T10:59:35;3.27;;;2.73;;
9447;SDS011;4762;48.128;11.376;2022-11-14T11:01:39;2.60;;;1.90;;
9447;SDS011;4762;48.128;11.376;2022-11-14T11:03:43;3.40;;;2.17;;
9447;SDS011;4762;48.128;11.376;2022-11-14T11:05:47;2.37;;;1.60;;
9447;SDS011;4762;48.128;11.376;2022-11-14T11:10:18;4.30;;;1.97;;
9447;SDS011;4762;48.128;11.376;2022-11-14T11:12:17;2.63;;;2.03;;
9447;SDS011;4762;48.128;11.376;2022-11-14T11:14:18;3.00;;;2.00;;
9447;SDS011;4762;48.128;11.376;2022-11-14T11:16:21;3.17;;;2.30;;
9447;SDS011;4762;48.128;11.376;2022-11-14T11:18:28;3.07;;;2.13;;
9447;SDS011;4762;48.128;11.376;2022-11-14T11:20:31;9.77;;;3.10;;
9447;SDS011;4762;48.128;11.376;2022-11-14T11:22:36;2.90;;;2.30;;
9447;SDS011;4762;48.128;11.376;2022-11-14T11:24:39;3.30;;;1.93;;
9447;SDS011;4762;48.128;11.376;2022-11-14T11:26:41;3.70;;;2.00;;
9447;SDS011;4762;48.128;11.376;2022-11-14T11:28:43;4.30;;;2.63;;
9447;SDS011;4762;48.128;11.376;2022-11-14T11:33:13;2.03;;;1.37;;
9447;SDS011;4762;48.128;11.376;2022-11-14T11:35:10;6.93;;;1.90;;
9447;SDS011;4762;48.128;11.376;2022-11-14T11:37:14;3.30;;;1.57;;
9447;SDS011;4762;48.128;11.376;2022-11-14T11:39:19;2.70;;;1.80;;
9447;SDS011;4762;48.128;11.376;2022-11-14T11:41:20;4.67;;;2.17;;
9447;SDS011;4762;48.128;11.376;2022-11-14T11:43:29;4.73;;;2.10;;
9447;SDS011;4762;48.128;11.376;2022-11-14T11:45:39;3.43;;;1.70;;
9447;SDS011;4762;48.128;11.376;2022-11-14T11:47:43;2.40;;;1.57;;
9447;SDS011;4762;48.128;11.376;2022-11-14T11:49:48;2.83;;;1.80;;
9447;SDS011;4762;48.128;11.376;2022-11-14T11:51:50;8.00;;;2.10;;
9447;SDS011;4762;48.128;11.376;2022-11-14T11:53:59;2.13;;;1.50;;
9447;SDS011;4762;48.128;11.376;2022-11-14T11:56:05;4.97;;;1.60;;
9447;SDS011;4762;48.128;11.376;2022-11-14T11:58:18;4.00;;;1.97;;
9447;SDS011;4762;48.128;11.376;2022-11-14T12:00:20;2.57;;;1.80;;
9447;SDS011;4762;48.128;11.376;2022-11-14T12:02:24;2.73;;;1.80;;
9447;SDS011;4762;48.128;11.376;2022-11-14T12:04:25;2.50;;;1.30;;
9447;SDS011;4762;48.128;11.376;2022-11-14T12:06:28;2.20;;;1.40;;
9447;SDS011;4762;48.128;11.376;2022-11-14T12:08:34;2.90;;;1.80;;
9447;SDS011;4762;48.128;11.376;2022-11-14T12:10:35;2.00;;;0.93;;
9447;SDS011;4762;48.128;11.376;2022-11-14T12:12:59;3.10;;;1.47;;
9447;SDS011;4762;48.128;11.376;2022-11-14T12:17:24;2.83;;;1.17;;
9447;SDS011;4762;48.128;11.376;2022-11-14T12:22:07;2.20;;;1.27;;
9447;SDS011;4762;48.128;11.376;2022-11-14T12:26:27;2.13;;;1.30;;
9447;SDS011;4762;48.128;11.376;2022-11-14T12:29:10;1.90;;;1.20;;
9447;SDS011;4762;48.128;11.376;2022-11-14T12:30:58;3.03;;;1.20;;
9447;SDS011;4762;48.128;11.376;2022-11-14T12:33:03;2.67;;;1.20;;
9447;SDS011;4762;48.128;11.376;2022-11-14T12:35:06;2.10;;;1.37;;
9447;SDS011;4762;48.128;11.376;2022-11-14T12:37:14;2.80;;;1.77;;
9447;SDS011;4762;48.128;11.376;2022-11-14T12:39:24;2.20;;;1.60;;
9447;SDS011;4762;48.128;11.376;2022-11-14T12:41:28;3.30;;;1.20;;
9447;SDS011;4762;48.128;11.376;2022-11-14T12:43:34;2.07;;;1.20;;
9447;SDS011;4762;48.128;11.376;2022-11-14T12:45:55;2.10;;;1.30;;
9447;SDS011;4762;48.128;11.376;2022-11-14T12:48:14;2.37;;;1.40;;
9447;SDS011;4762;48.128;11.376;2022-11-14T12:50:30;2.23;;;1.23;;
9447;SDS011;4762;48.128;11.376;2022-11-14T12:52:49;1.93;;;1.20;;
9447;SDS011;4762;48.128;11.376;2022-11-14T12:54:51;1.90;;;1.13;;
9447;SDS011;4762;48.128;11.376;2022-11-14T12:56:54;2.80;;;1.50;;
9447;SDS011;4762;48.128;11.376;2022-11-14T12:59:05;2.40;;;1.27;;
9447;SDS011;4762;48.128;11.376;2022-11-14T13:01:18;2.67;;;1.70;;
9447;SDS011;4762;48.128;11.376;2022-11-14T13:03:40;2.90;;;1.50;;
9447;SDS011;4762;48.128;11.376;2022-11-14T13:10:13;1.90;;;1.30;;
9447;SDS011;4762;48.128;11.376;2022-11-14T13:12:24;2.50;;;1.30;;
9447;SDS011;4762;48.128;11.376;2022-11-14T13:14:31;3.40;;;1.43;;
9447;SDS011;4762;48.128;11.376;2022-11-14T13:16:38;2.37;;;1.30;;
9447;SDS011;4762;48.128;11.376;2022-11-14T13:18:52;2.40;;;1.40;;
9447;SDS011;4762;48.128;11.376;2022-11-14T13:21:02;2.30;;;1.20;;
9447;SDS011;4762;48.128;11.376;2022-11-14T13:25:45;2.37;;;1.43;;
9447;SDS011;4762;48.128;11.376;2022-11-14T13:27:47;1.60;;;0.93;;
9447;SDS011;4762;48.128;11.376;2022-11-14T13:29:49;1.87;;;1.30;;
9447;SDS011;4762;48.128;11.376;2022-11-14T13:31:52;1.77;;;1.07;;
9447;SDS011;4762;48.128;11.376;2022-11-14T13:33:54;3.30;;;1.33;;
9447;SDS011;4762;48.128;11.376;2022-11-14T13:35:57;5.27;;;1.67;;
9447;SDS011;4762;48.128;11.376;2022-11-14T13:38:25;1.70;;;1.03;;
9447;SDS011;4762;48.128;11.376;2022-11-14T13:43:08;2.47;;;1.30;;
9447;SDS011;4762;48.128;11.376;2022-11-14T13:45:20;2.47;;;1.40;;
9447;SDS011;4762;48.128;11.376;2022-11-14T13:47:27;1.87;;;1.20;;
9447;SDS011;4762;48.128;11.376;2022-11-14T13:49:35;1.83;;;0.90;;
9447;SDS011;4762;48.128;11.376;2022-11-14T13:51:37;2.20;;;1.30;;
9447;SDS011;4762;48.128;11.376;2022-11-14T13:53:39;2.10;;;1.33;;
9447;SDS011;4762;48.128;11.376;2022-11-14T13:55:53;2.57;;;1.03;;
9447;SDS011;4762;48.128;11.376;2022-11-14T13:58:14;2.03;;;1.10;;